createdAt,value
2019-04-28T00:01:15.920Z,98055.72
2019-04-28T00:06:37.838Z,98057.53
2019-04-28T00:11:59.202Z,98037.95
2019-04-28T00:17:21.253Z,98032.08
2019-04-28T00:22:55.004Z,98036.41
2019-04-28T00:28:17.243Z,98059.46
2019-04-28T00:33:38.793Z,98053.23
2019-04-28T00:39:01.509Z,98049.59
2019-04-28T00:44:24.068Z,98045.59
2019-04-28T00:49:45.871Z,98037.50
2019-04-28T00:55:07.698Z,98043.34
2019-04-28T01:00:31.596Z,98038.56
2019-04-28T01:05:53.658Z,98039.52
2019-04-28T01:11:15.249Z,98028.30
2019-04-28T01:16:45.951Z,98037.19
2019-04-28T01:22:17.423Z,98029.39
2019-04-28T01:28:00.218Z,98031.62
2019-04-28T01:33:47.706Z,98026.11
2019-04-28T01:39:10.341Z,98039.95
2019-04-28T01:44:32.246Z,98039.62
2019-04-28T01:49:53.640Z,98051.52
2019-04-28T01:55:15.535Z,98049.90
2019-04-28T02:00:38.176Z,98061.25
2019-04-28T02:06:00.342Z,98073.77
2019-04-28T02:11:21.917Z,98066.22
2019-04-28T02:16:43.487Z,98068.87
2019-04-28T02:22:14.665Z,98059.60
2019-04-28T02:27:36.213Z,98052.37
2019-04-28T02:32:57.890Z,98051.28
2019-04-28T02:38:20.992Z,98049.20
2019-04-28T02:43:43.291Z,98043.91
2019-04-28T02:49:07.085Z,98040.88
2019-04-28T02:54:30.467Z,98035.71
2019-04-28T02:59:52.376Z,98049.80
2019-04-28T03:05:14.518Z,98044.36
2019-04-28T03:10:36.465Z,98040.76
2019-04-28T03:16:01.158Z,98054.25
2019-04-28T03:21:22.054Z,98051.99
2019-04-28T03:27:00.631Z,98049.06
2019-04-28T03:32:39.713Z,98051.39
2019-04-28T03:37:52.662Z,98059.05
2019-04-28T03:43:14.867Z,98064.41
2019-04-28T03:48:37.774Z,98045.41
2019-04-28T03:54:00.606Z,98070.40
2019-04-28T03:59:22.931Z,98065.23
2019-04-28T04:04:44.693Z,98071.09
2019-04-28T04:10:20.640Z,98058.09
2019-04-28T04:16:16.818Z,98080.08
2019-04-28T04:21:40.693Z,98074.10
2019-04-28T04:27:02.244Z,98073.42
2019-04-28T04:32:26.965Z,98092.78
2019-04-28T04:37:50.282Z,98084.62
2019-04-28T04:43:11.488Z,98078.48
2019-04-28T04:48:33.547Z,98110.33
2019-04-28T04:53:55.271Z,98091.28
2019-04-28T04:59:16.824Z,98078.77
2019-04-28T05:05:00.766Z,98083.40
2019-04-28T05:10:22.308Z,98100.12
2019-04-28T05:15:43.901Z,98090.56
2019-04-28T05:21:05.690Z,98098.40
2019-04-28T05:26:27.448Z,98108.75
2019-04-28T05:31:50.406Z,98106.72
2019-04-28T05:37:12.058Z,98100.38
2019-04-28T05:42:33.794Z,98108.38
2019-04-28T05:47:56.074Z,98105.53
2019-04-28T05:53:29.985Z,98116.35
2019-04-28T05:58:54.902Z,98131.69
2019-04-28T06:04:19.914Z,98120.13
2019-04-28T06:09:45.979Z,98127.63
2019-04-28T06:15:07.927Z,98141.47
2019-04-28T06:20:30.313Z,98137.14
2019-04-28T06:25:52.563Z,98129.44
2019-04-28T06:31:14.150Z,98127.03
2019-04-28T06:36:36.072Z,98120.08
2019-04-28T06:41:57.968Z,98133.03
2019-04-28T06:47:19.435Z,98116.73
2019-04-28T06:52:41.254Z,98122.18
2019-04-28T06:58:03.515Z,98119.81
2019-04-28T07:03:25.342Z,98120.17
2019-04-28T07:08:47.100Z,98120.17
2019-04-28T07:14:09.096Z,98115.62
2019-04-28T07:19:33.401Z,98123.11
2019-04-28T07:24:56.840Z,98127.19
2019-04-28T07:30:18.583Z,98127.19
2019-04-28T07:35:40.474Z,98126.60
2019-04-28T07:41:02.268Z,98136.44
2019-04-28T07:46:23.815Z,98131.39
2019-04-28T07:51:54.362Z,98139.52
2019-04-28T07:57:16.545Z,98140.06
2019-04-28T08:02:38.377Z,98149.02
2019-04-28T08:08:00.463Z,98136.30
2019-04-28T08:13:22.776Z,98139.63
2019-04-28T08:18:44.586Z,98148.67
2019-04-28T08:24:06.474Z,98151.79
2019-04-28T08:29:28.295Z,98141.58
2019-04-28T08:34:50.581Z,98132.59
2019-04-28T08:40:12.506Z,98132.67
2019-04-28T08:45:34.161Z,98125.39
2019-04-28T08:50:56.222Z,98117.69
2019-04-28T08:56:17.905Z,98120.80
2019-04-28T09:01:39.881Z,98117.53
2019-04-28T09:07:01.659Z,98105.36
2019-04-28T09:12:23.454Z,98108.77
2019-04-28T09:17:45.123Z,98101.11
2019-04-28T09:23:06.715Z,98101.43
2019-04-28T09:28:28.782Z,98103.37
2019-04-28T09:33:50.581Z,98093.52
2019-04-28T09:39:14.144Z,98090.34
2019-04-28T09:44:35.930Z,98088.31
2019-04-28T09:49:57.674Z,98081.41
2019-04-28T09:55:19.404Z,98078.92
2019-04-28T10:00:41.217Z,98074.98
2019-04-28T10:06:02.674Z,98073.84
2019-04-28T10:11:30.217Z,98084.59
2019-04-28T10:16:47.926Z,98067.42
2019-04-28T10:22:09.556Z,98058.24
2019-04-28T10:27:31.309Z,98059.13
2019-04-28T10:32:53.568Z,98059.94
2019-04-28T10:38:15.359Z,98063.30
2019-04-28T10:43:36.849Z,98066.27
2019-04-28T10:48:58.881Z,98054.91
2019-04-28T10:54:21.767Z,98050.55
2019-04-28T10:59:43.779Z,98051.53
2019-04-28T11:05:13.496Z,98042.50
2019-04-28T11:10:35.661Z,98040.88
2019-04-28T11:15:57.703Z,98041.01
2019-04-28T11:21:19.730Z,98047.50
2019-04-28T11:26:41.867Z,98055.91
2019-04-28T11:32:04.125Z,98059.23
2019-04-28T11:37:26.415Z,98053.52
2019-04-28T11:42:48.505Z,98053.84
2019-04-28T11:48:10.692Z,98053.97
2019-04-28T11:53:32.421Z,98050.09
2019-04-28T11:58:58.387Z,98041.97
2019-04-28T12:04:21.054Z,98045.27
2019-04-28T12:10:04.844Z,98034.91
2019-04-28T12:15:37.511Z,98031.55
2019-04-28T12:21:00.033Z,98017.34
2019-04-28T12:26:22.145Z,98028.65
2019-04-28T12:31:45.757Z,98019.91
2019-04-28T12:37:07.796Z,98016.53
2019-04-28T12:42:32.211Z,98014.39
2019-04-28T12:47:57.315Z,98008.19
2019-04-28T12:53:20.611Z,97998.24
2019-04-28T12:58:45.399Z,97991.32
2019-04-28T13:04:15.723Z,97997.12
2019-04-28T13:09:38.070Z,97995.86
2019-04-28T13:15:00.349Z,97990.48
2019-04-28T13:20:22.025Z,97988.94
2019-04-28T13:25:47.340Z,97980.29
2019-04-28T13:31:09.052Z,97979.70
2019-04-28T13:36:31.489Z,97970.77
2019-04-28T13:41:56.289Z,97972.50
2019-04-28T13:47:18.567Z,97967.39
2019-04-28T13:52:40.442Z,97963.10
2019-04-28T13:58:03.845Z,97953.72
2019-04-28T14:03:51.270Z,97956.94
2019-04-28T14:09:18.038Z,97941.66
2019-04-28T14:14:40.625Z,97936.95
2019-04-28T14:20:07.607Z,97937.41
2019-04-28T14:25:29.321Z,97945.92
2019-04-28T14:30:50.982Z,97946.34
2019-04-28T14:36:12.601Z,97948.63
2019-04-28T14:41:34.857Z,97953.46
2019-04-28T14:46:56.557Z,97945.27
2019-04-28T14:52:18.573Z,97947.80
2019-04-28T14:57:40.674Z,97952.13
2019-04-28T15:03:08.374Z,97944.97
2019-04-28T15:08:52.660Z,97956.16
2019-04-28T15:14:17.092Z,97960.82
2019-04-28T15:19:40.082Z,97959.02
2019-04-28T15:25:01.875Z,97957.22
2019-04-28T15:30:23.827Z,97958.75
2019-04-28T15:35:45.486Z,97957.08
2019-04-28T15:41:20.621Z,97957.16
2019-04-28T15:46:31.118Z,97952.16
2019-04-28T15:51:52.838Z,97958.58
2019-04-28T15:57:14.502Z,97943.29
2019-04-28T16:02:36.039Z,97942.06
2019-04-28T16:07:58.020Z,97943.39
2019-04-28T16:13:19.752Z,97948.59
2019-04-28T16:18:40.988Z,97954.89
2019-04-28T16:24:03.145Z,97953.73
2019-04-28T16:29:25.060Z,97960.57
2019-04-28T16:34:46.818Z,97961.47
2019-04-28T16:40:09.619Z,97964.69
2019-04-28T16:45:31.721Z,97962.64
2019-04-28T16:50:53.733Z,97961.89
2019-04-28T16:56:39.106Z,97950.18
2019-04-28T17:02:05.647Z,97957.50
2019-04-28T17:07:27.378Z,97951.03
2019-04-28T17:12:49.126Z,97956.39
2019-04-28T17:18:11.161Z,97955.31
2019-04-28T17:23:32.725Z,97954.44
2019-04-28T17:28:54.389Z,97954.44
2019-04-28T17:34:16.505Z,97966.55
2019-04-28T17:39:38.505Z,97971.91
2019-04-28T17:45:00.805Z,97983.59
2019-04-28T17:50:23.943Z,98001.03
2019-04-28T17:55:45.984Z,98017.28
2019-04-28T18:01:30.427Z,98030.17
2019-04-28T18:06:56.955Z,98030.48
2019-04-28T18:12:19.006Z,98042.50
2019-04-28T18:18:03.216Z,98041.38
2019-04-28T18:23:25.657Z,98055.82
2019-04-28T18:28:47.114Z,98058.78
2019-04-28T18:34:43.404Z,98054.20
2019-04-28T18:40:13.407Z,98055.19
2019-04-28T18:45:34.837Z,98073.37
2019-04-28T18:50:56.716Z,98082.66
2019-04-28T18:56:18.347Z,98068.41
2019-04-28T19:01:49.237Z,98093.66
2019-04-28T19:07:13.839Z,98100.87
2019-04-28T19:12:42.951Z,98113.83
2019-04-28T19:18:09.808Z,98123.19
2019-04-28T19:23:32.020Z,98119.33
2019-04-28T19:28:53.809Z,98123.17
2019-04-28T19:34:16.576Z,98123.06
2019-04-28T19:39:40.799Z,98118.22
2019-04-28T19:45:02.324Z,98123.48
2019-04-28T19:50:23.683Z,98116.16
2019-04-28T19:55:52.941Z,98109.79
2019-04-28T20:01:21.435Z,98106.25
2019-04-28T20:06:43.531Z,98118.41
2019-04-28T20:12:05.415Z,98117.06
2019-04-28T20:17:27.613Z,98111.73
2019-04-28T20:22:49.215Z,98114.54
2019-04-28T20:28:11.000Z,98115.75
2019-04-28T20:33:32.913Z,98121.02
2019-04-28T20:38:58.139Z,98127.05
2019-04-28T20:44:20.128Z,98122.88
2019-04-28T20:49:41.660Z,98121.70
2019-04-28T20:55:03.710Z,98109.01
2019-04-28T21:00:25.193Z,98117.70
2019-04-28T21:05:47.003Z,98107.34
2019-04-28T21:11:08.530Z,98110.73
2019-04-28T21:16:30.284Z,98117.09
2019-04-28T21:21:52.012Z,98111.42
2019-04-28T21:27:14.143Z,98113.09
2019-04-28T21:32:36.263Z,98105.78
2019-04-28T21:37:58.572Z,98109.80
2019-04-28T21:43:35.582Z,98124.64
2019-04-28T21:49:19.642Z,98107.28
2019-04-28T21:54:41.133Z,98112.63
2019-04-28T22:00:03.905Z,98119.99
2019-04-28T22:05:30.408Z,98121.33
2019-04-28T22:10:49.664Z,98106.81
2019-04-28T22:16:11.359Z,98111.14
2019-04-28T22:21:32.831Z,98110.16
2019-04-28T22:26:54.585Z,98106.13
2019-04-28T22:32:16.571Z,98111.50
2019-04-28T22:37:38.519Z,98095.16
2019-04-28T22:43:00.335Z,98094.16
2019-04-28T22:48:24.956Z,98090.42
2019-04-28T22:53:46.927Z,98083.75
2019-04-28T22:59:16.113Z,98084.09
2019-04-28T23:05:00.934Z,98081.77
2019-04-28T23:10:22.924Z,98073.06
2019-04-28T23:15:44.562Z,98068.95
2019-04-28T23:21:14.661Z,98052.11
2019-04-28T23:26:36.719Z,98059.55
2019-04-28T23:31:58.159Z,98062.06
2019-04-28T23:37:20.123Z,98066.75
2019-04-28T23:42:51.398Z,98070.67
2019-04-28T23:48:12.897Z,98076.19
2019-04-28T23:53:53.193Z,98094.42
2019-04-28T23:59:15.038Z,98086.26
